createdAt,value
2017-04-07T00:00:31.487Z,17.30
2017-04-07T00:01:35.195Z,17.30
2017-04-07T00:02:39.179Z,17.40
2017-04-07T00:03:42.812Z,17.50
2017-04-07T00:04:46.682Z,17.40
2017-04-07T00:05:51.386Z,17.30
2017-04-07T00:06:55.631Z,17.20
2017-04-07T00:08:01.455Z,17.20
2017-04-07T00:09:05.672Z,17.00
2017-04-07T00:10:09.470Z,16.80
2017-04-07T00:11:13.216Z,16.90
2017-04-07T00:12:17.107Z,17.10
2017-04-07T00:13:21.120Z,17.20
2017-04-07T00:14:24.789Z,17.30
2017-04-07T00:15:28.846Z,17.20
2017-04-07T00:16:33.468Z,17.20
2017-04-07T00:17:38.237Z,17.20
2017-04-07T00:18:42.198Z,17.10
2017-04-07T00:19:46.227Z,16.90
2017-04-07T00:20:50.070Z,16.90
2017-04-07T00:21:53.704Z,16.80
2017-04-07T00:22:57.246Z,16.90
2017-04-07T00:24:01.261Z,17.10
2017-04-07T00:25:04.973Z,17.20
2017-04-07T00:26:09.567Z,17.40
2017-04-07T00:27:13.103Z,17.30
2017-04-07T00:28:17.610Z,17.30
2017-04-07T00:29:21.485Z,17.40
2017-04-07T00:30:25.337Z,17.50
2017-04-07T00:31:29.475Z,17.60
2017-04-07T00:32:33.589Z,17.60
2017-04-07T00:33:37.146Z,17.40
2017-04-07T00:34:41.070Z,17.20
2017-04-07T00:35:44.594Z,17.20
2017-04-07T00:36:48.450Z,17.20
2017-04-07T00:37:52.325Z,17.20
2017-04-07T00:38:56.580Z,17.20
2017-04-07T00:40:00.392Z,17.20
2017-04-07T00:41:04.158Z,17.20
2017-04-07T00:42:07.897Z,17.30
2017-04-07T00:43:11.803Z,17.30
2017-04-07T00:44:15.368Z,17.30
2017-04-07T00:45:19.471Z,17.50
2017-04-07T00:46:23.615Z,17.70
2017-04-07T00:47:27.447Z,17.80
2017-04-07T00:48:31.154Z,17.80
2017-04-07T00:49:35.229Z,17.70
2017-04-07T00:50:38.913Z,17.70
2017-04-07T00:51:43.880Z,17.80
2017-04-07T00:52:47.903Z,17.60
2017-04-07T00:53:52.594Z,17.50
2017-04-07T00:54:56.176Z,17.50
2017-04-07T00:55:59.501Z,17.70
2017-04-07T00:57:04.064Z,17.70
2017-04-07T00:58:08.251Z,17.60
2017-04-07T00:59:11.966Z,17.70
2017-04-07T01:00:16.112Z,17.60
2017-04-07T01:01:20.474Z,17.40
2017-04-07T01:02:24.609Z,17.60
2017-04-07T01:03:28.680Z,17.70
2017-04-07T01:04:32.442Z,17.70
2017-04-07T01:05:36.161Z,17.70
2017-04-07T01:06:39.879Z,17.70
2017-04-07T01:07:43.589Z,17.70
2017-04-07T01:08:47.657Z,17.80
2017-04-07T01:09:51.444Z,17.90
2017-04-07T01:10:55.467Z,17.80
2017-04-07T01:11:59.487Z,17.90
2017-04-07T01:13:03.351Z,18.00
2017-04-07T01:14:07.377Z,17.90
2017-04-07T01:15:11.347Z,18.00
2017-04-07T01:16:15.229Z,18.20
2017-04-07T01:17:19.171Z,18.10
2017-04-07T01:18:22.816Z,18.00
2017-04-07T01:19:26.728Z,18.00
2017-04-07T01:20:30.640Z,18.10
2017-04-07T01:21:34.708Z,18.00
2017-04-07T01:22:38.532Z,18.00
2017-04-07T01:23:43.466Z,17.80
2017-04-07T01:24:47.456Z,17.90
2017-04-07T01:25:51.364Z,17.90
2017-04-07T01:26:55.483Z,18.00
2017-04-07T01:27:59.112Z,18.10
2017-04-07T01:29:03.028Z,18.30
2017-04-07T01:30:06.805Z,18.40
2017-04-07T01:31:10.941Z,18.40
2017-04-07T01:32:15.053Z,18.40
2017-04-07T01:33:18.395Z,18.10
2017-04-07T01:34:22.345Z,18.20
2017-04-07T01:35:26.659Z,18.10
2017-04-07T01:36:31.273Z,17.90
2017-04-07T01:37:35.766Z,18.00
2017-04-07T01:38:39.274Z,18.00
2017-04-07T01:39:43.668Z,18.00
2017-04-07T01:40:47.555Z,17.90
2017-04-07T01:41:51.538Z,17.90
2017-04-07T01:42:55.662Z,18.00
2017-04-07T01:43:59.831Z,18.10
2017-04-07T01:45:03.960Z,18.10
2017-04-07T01:46:07.947Z,18.00
2017-04-07T01:47:11.539Z,17.80
2017-04-07T01:48:15.730Z,17.30
2017-04-07T01:49:19.663Z,17.00
2017-04-07T01:50:23.629Z,16.80
2017-04-07T01:51:27.604Z,16.70
2017-04-07T01:52:33.083Z,16.70
2017-04-07T01:53:37.336Z,16.60
2017-04-07T01:54:41.058Z,16.40
2017-04-07T01:55:44.552Z,16.50
2017-04-07T01:56:48.551Z,16.50
2017-04-07T01:57:53.387Z,16.40
2017-04-07T01:58:57.295Z,16.40
2017-04-07T02:00:00.698Z,16.40
2017-04-07T02:01:04.597Z,16.30
2017-04-07T02:02:08.717Z,16.20
2017-04-07T02:03:13.408Z,16.20
2017-04-07T02:04:17.510Z,16.20
2017-04-07T02:05:21.335Z,16.10
2017-04-07T02:06:25.014Z,16.20
2017-04-07T02:07:28.775Z,16.10
2017-04-07T02:08:32.621Z,16.00
2017-04-07T02:09:36.706Z,16.10
2017-04-07T02:10:40.713Z,16.10
2017-04-07T02:11:44.537Z,16.00
2017-04-07T02:12:48.364Z,15.90
2017-04-07T02:13:52.075Z,15.90
2017-04-07T02:14:55.902Z,15.80
2017-04-07T02:16:00.107Z,15.80
2017-04-07T02:17:04.289Z,15.80
2017-04-07T02:18:08.153Z,15.90
2017-04-07T02:19:12.317Z,16.00
2017-04-07T02:20:16.091Z,16.20
2017-04-07T02:21:20.021Z,16.30
2017-04-07T02:22:23.901Z,16.30
2017-04-07T02:23:27.858Z,16.40
2017-04-07T02:24:32.308Z,16.40
2017-04-07T02:25:36.315Z,16.30
2017-04-07T02:26:40.177Z,16.20
2017-04-07T02:27:44.060Z,16.20
2017-04-07T02:28:47.872Z,16.10
2017-04-07T02:29:51.882Z,16.00
2017-04-07T02:30:55.635Z,15.90
2017-04-07T02:31:59.639Z,15.70
2017-04-07T02:33:03.518Z,15.60
2017-04-07T02:34:08.116Z,15.40
2017-04-07T02:35:11.842Z,15.60
2017-04-07T02:36:15.681Z,15.60
2017-04-07T02:37:19.993Z,15.40
2017-04-07T02:38:23.797Z,15.40
2017-04-07T02:39:27.858Z,15.40
2017-04-07T02:40:31.988Z,15.50
2017-04-07T02:41:36.091Z,15.50
2017-04-07T02:42:40.872Z,15.40
2017-04-07T02:43:44.873Z,15.40
2017-04-07T02:44:48.526Z,15.40
2017-04-07T02:45:52.536Z,15.50
2017-04-07T02:46:56.400Z,15.50
2017-04-07T02:48:01.374Z,15.50
2017-04-07T02:49:05.359Z,15.40
2017-04-07T02:50:09.359Z,15.40
2017-04-07T02:51:13.332Z,15.50
2017-04-07T02:52:17.612Z,15.30
2017-04-07T02:53:22.352Z,15.20
2017-04-07T02:54:26.697Z,15.30
2017-04-07T02:55:30.298Z,15.30
2017-04-07T02:56:33.900Z,15.00
2017-04-07T02:57:37.681Z,14.90
2017-04-07T02:58:41.348Z,14.80
2017-04-07T02:59:45.094Z,14.80
2017-04-07T03:00:49.145Z,14.90
2017-04-07T03:01:53.852Z,15.00
2017-04-07T03:02:57.385Z,15.10
2017-04-07T03:04:01.376Z,15.00
2017-04-07T03:05:05.498Z,15.10
2017-04-07T03:06:10.097Z,15.10
2017-04-07T03:07:14.094Z,15.10
2017-04-07T03:08:18.204Z,15.20
2017-04-07T03:09:22.276Z,15.30
2017-04-07T03:10:25.937Z,15.30
2017-04-07T03:11:29.618Z,15.20
2017-04-07T03:12:33.509Z,14.90
2017-04-07T03:13:37.397Z,14.90
2017-04-07T03:14:41.404Z,14.90
2017-04-07T03:15:45.370Z,15.00
2017-04-07T03:16:48.876Z,14.80
2017-04-07T03:17:53.572Z,14.70
2017-04-07T03:18:57.625Z,14.60
2017-04-07T03:20:00.917Z,14.60
2017-04-07T03:21:04.197Z,14.40
2017-04-07T03:22:07.896Z,14.40
2017-04-07T03:23:11.572Z,14.30
2017-04-07T03:24:15.118Z,14.10
2017-04-07T03:25:19.046Z,14.10
2017-04-07T03:26:22.579Z,13.90
2017-04-07T03:27:26.517Z,13.80
2017-04-07T03:28:30.883Z,13.90
2017-04-07T03:29:34.838Z,13.70
2017-04-07T03:30:38.458Z,13.60
2017-04-07T03:31:42.262Z,13.60
2017-04-07T03:32:46.731Z,13.60
2017-04-07T03:33:50.423Z,13.50
2017-04-07T03:34:54.585Z,13.60
2017-04-07T03:35:58.442Z,13.80
2017-04-07T03:37:02.229Z,14.00
2017-04-07T03:38:06.890Z,14.10
2017-04-07T03:39:10.643Z,14.30
2017-04-07T03:40:14.754Z,14.30
2017-04-07T03:41:18.840Z,14.40
2017-04-07T03:42:22.616Z,14.30
2017-04-07T03:43:26.470Z,13.90
2017-04-07T03:44:30.947Z,14.00
2017-04-07T03:45:34.636Z,14.10
2017-04-07T03:46:38.608Z,14.20
2017-04-07T03:47:42.207Z,14.30
2017-04-07T03:48:46.080Z,14.10
2017-04-07T03:49:50.326Z,14.10
2017-04-07T03:50:54.242Z,14.10
2017-04-07T03:51:57.858Z,13.80
2017-04-07T03:53:01.718Z,13.90
2017-04-07T03:54:06.450Z,13.90
2017-04-07T03:55:10.527Z,13.60
2017-04-07T03:56:14.553Z,13.40
2017-04-07T03:57:18.321Z,13.20
2017-04-07T03:58:21.982Z,13.10
2017-04-07T03:59:26.161Z,12.80
2017-04-07T04:00:30.924Z,12.80
2017-04-07T04:01:35.041Z,12.90
2017-04-07T04:02:39.441Z,13.00
2017-04-07T04:03:43.538Z,13.10
2017-04-07T04:04:47.360Z,13.20
2017-04-07T04:05:51.212Z,13.20
2017-04-07T04:06:55.501Z,13.20
2017-04-07T04:07:59.527Z,13.20
2017-04-07T04:09:03.156Z,13.10
2017-04-07T04:10:07.024Z,13.20
2017-04-07T04:11:10.677Z,13.20
2017-04-07T04:12:14.727Z,13.30
2017-04-07T04:13:19.218Z,13.20
2017-04-07T04:14:23.101Z,13.20
2017-04-07T04:15:26.933Z,13.30
2017-04-07T04:16:35.028Z,13.40
2017-04-07T04:17:39.066Z,13.40
2017-04-07T04:18:43.910Z,13.50
2017-04-07T04:19:48.394Z,13.30
2017-04-07T04:20:52.914Z,13.50
2017-04-07T04:21:57.233Z,13.60
2017-04-07T04:23:01.427Z,13.70
2017-04-07T04:24:05.399Z,13.60
2017-04-07T04:25:09.284Z,13.20
2017-04-07T04:26:12.772Z,13.00
2017-04-07T04:27:17.604Z,12.80
2017-04-07T04:28:21.447Z,12.90
2017-04-07T04:29:25.132Z,13.00
2017-04-07T04:30:28.952Z,13.10
2017-04-07T04:31:33.061Z,13.10
2017-04-07T04:32:36.857Z,13.20
2017-04-07T04:33:40.963Z,13.30
2017-04-07T04:34:45.499Z,13.20
2017-04-07T04:35:49.343Z,13.30
2017-04-07T04:36:53.913Z,13.30
2017-04-07T04:37:57.442Z,13.40
2017-04-07T04:40:04.899Z,13.50
2017-04-07T04:41:08.691Z,13.60
2017-04-07T04:42:12.603Z,13.60
2017-04-07T04:43:16.485Z,13.60
2017-04-07T04:44:19.876Z,13.60
2017-04-07T04:45:23.694Z,13.70
2017-04-07T04:46:27.824Z,13.70
2017-04-07T04:47:31.817Z,13.70
2017-04-07T04:48:35.863Z,13.80
2017-04-07T04:49:39.545Z,13.90
2017-04-07T04:50:43.459Z,13.90
2017-04-07T04:51:47.376Z,14.00
2017-04-07T04:52:51.211Z,14.10
2017-04-07T04:53:54.753Z,14.10
2017-04-07T04:54:59.432Z,14.20
2017-04-07T04:56:03.149Z,14.30
2017-04-07T04:57:06.649Z,14.30
2017-04-07T04:58:10.689Z,14.30
2017-04-07T04:59:14.453Z,14.30
2017-04-07T05:00:18.338Z,14.40
2017-04-07T05:01:22.066Z,14.60
2017-04-07T05:02:25.403Z,14.60
2017-04-07T05:03:29.229Z,14.70
2017-04-07T05:04:33.488Z,14.70
2017-04-07T05:05:37.222Z,14.70
2017-04-07T05:06:42.077Z,14.70
2017-04-07T05:07:45.823Z,14.80
2017-04-07T05:08:49.811Z,14.90
2017-04-07T05:09:53.520Z,15.00
2017-04-07T05:10:57.656Z,14.90
2017-04-07T05:12:01.384Z,15.00
2017-04-07T05:13:05.629Z,14.90
2017-04-07T05:14:09.613Z,15.10
2017-04-07T05:15:13.410Z,15.10
2017-04-07T05:16:17.235Z,15.10
2017-04-07T05:17:21.096Z,15.00
2017-04-07T05:18:24.951Z,15.10
2017-04-07T05:19:28.738Z,15.00
2017-04-07T05:20:32.692Z,15.00
2017-04-07T05:21:36.676Z,14.90
2017-04-07T05:23:43.317Z,14.90
2017-04-07T05:24:47.609Z,15.00
2017-04-07T05:25:51.369Z,14.90
2017-04-07T05:26:54.933Z,14.80
2017-04-07T05:27:58.856Z,14.70
2017-04-07T05:29:02.781Z,14.60
2017-04-07T05:30:07.637Z,14.60
2017-04-07T05:31:11.416Z,14.50
2017-04-07T05:32:15.208Z,14.40
2017-04-07T05:33:18.990Z,14.40
2017-04-07T05:34:22.525Z,14.20
2017-04-07T05:35:28.266Z,14.20
2017-04-07T05:36:32.187Z,14.20
2017-04-07T05:38:12.071Z,14.30
2017-04-07T05:39:24.346Z,14.10
2017-04-07T05:40:33.732Z,13.90
2017-04-07T05:41:46.597Z,13.80
2017-04-07T05:43:14.837Z,13.70
2017-04-07T05:44:18.601Z,13.60
2017-04-07T05:45:22.507Z,13.70
2017-04-07T05:46:25.949Z,13.50
2017-04-07T05:47:29.742Z,13.40
2017-04-07T05:48:33.498Z,13.40
2017-04-07T05:49:38.197Z,13.30
2017-04-07T05:50:42.034Z,13.20
2017-04-07T05:51:45.802Z,13.10
2017-04-07T05:52:49.655Z,13.00
2017-04-07T05:53:54.266Z,12.90
2017-04-07T05:54:58.861Z,12.90
2017-04-07T05:56:02.878Z,12.80
2017-04-07T05:57:06.587Z,12.80
2017-04-07T05:58:10.691Z,12.80
2017-04-07T05:59:15.167Z,12.80
2017-04-07T06:00:19.121Z,12.70
2017-04-07T06:01:22.946Z,12.70
2017-04-07T06:02:26.874Z,12.70
2017-04-07T06:03:32.434Z,12.70
2017-04-07T06:04:36.051Z,12.60
2017-04-07T06:05:40.168Z,12.50
2017-04-07T06:06:45.253Z,12.40
2017-04-07T06:07:49.001Z,12.50
2017-04-07T06:08:52.867Z,12.50
2017-04-07T06:09:57.151Z,12.50
2017-04-07T06:11:00.943Z,12.60
2017-04-07T06:12:04.426Z,12.60
2017-04-07T06:13:08.887Z,12.70
2017-04-07T06:14:13.706Z,12.70
2017-04-07T06:15:17.613Z,12.80
2017-04-07T06:16:22.549Z,12.80
2017-04-07T06:17:26.272Z,12.90
2017-04-07T06:18:30.443Z,12.90
2017-04-07T06:19:34.225Z,12.90
2017-04-07T06:20:37.680Z,12.90
2017-04-07T06:21:41.777Z,13.10
2017-04-07T06:22:45.399Z,13.10
2017-04-07T06:23:49.358Z,13.20
2017-04-07T06:24:53.298Z,13.40
2017-04-07T06:25:57.420Z,13.40
2017-04-07T06:27:01.529Z,13.50
2017-04-07T06:28:05.130Z,13.70
2017-04-07T06:29:08.577Z,13.70
2017-04-07T06:30:12.338Z,13.30
2017-04-07T06:31:16.189Z,13.10
2017-04-07T06:32:19.844Z,13.10
2017-04-07T06:33:23.292Z,13.30
2017-04-07T06:34:27.183Z,13.40
2017-04-07T06:35:31.033Z,13.40
2017-04-07T06:36:34.345Z,13.60
2017-04-07T06:37:38.231Z,13.70
2017-04-07T06:38:42.222Z,13.70
2017-04-07T06:39:46.878Z,13.80
2017-04-07T06:40:50.017Z,14.00
2017-04-07T06:41:54.385Z,14.10
2017-04-07T06:42:58.482Z,14.20
2017-04-07T06:44:02.284Z,14.20
2017-04-07T06:45:06.186Z,14.00
2017-04-07T06:46:09.856Z,13.60
2017-04-07T06:47:13.866Z,13.20
2017-04-07T06:48:17.667Z,13.00
2017-04-07T06:49:21.443Z,12.90
2017-04-07T06:50:25.279Z,12.90
2017-04-07T06:51:28.909Z,13.10
2017-04-07T06:52:33.116Z,13.20
2017-04-07T06:53:37.111Z,13.20
2017-04-07T06:54:40.986Z,13.30
2017-04-07T06:55:46.123Z,13.50
2017-04-07T06:56:50.037Z,13.60
2017-04-07T06:57:54.080Z,13.70
2017-04-07T06:58:58.154Z,13.80
2017-04-07T07:00:02.050Z,13.80
2017-04-07T07:01:05.821Z,13.80
2017-04-07T07:02:10.695Z,13.80
2017-04-07T07:03:14.486Z,13.60
2017-04-07T07:04:19.272Z,13.40
2017-04-07T07:05:23.181Z,13.30
2017-04-07T07:06:27.124Z,12.90
2017-04-07T07:07:30.801Z,12.90
2017-04-07T07:08:34.645Z,13.10
2017-04-07T07:09:38.554Z,13.20
2017-04-07T07:10:41.806Z,13.00
2017-04-07T07:11:45.679Z,12.70
2017-04-07T07:12:49.552Z,12.60
2017-04-07T07:13:53.529Z,12.70
2017-04-07T07:14:57.492Z,12.80
2017-04-07T07:16:01.341Z,13.00
2017-04-07T07:17:05.261Z,13.10
2017-04-07T07:18:08.906Z,13.20
2017-04-07T07:19:12.620Z,13.40
2017-04-07T07:20:16.240Z,13.40
2017-04-07T07:21:20.284Z,13.50
2017-04-07T07:22:23.926Z,13.40
2017-04-07T07:23:27.430Z,13.10
2017-04-07T07:24:31.054Z,13.00
2017-04-07T07:25:34.625Z,12.80
2017-04-07T07:26:38.538Z,13.00
2017-04-07T07:27:42.111Z,13.10
2017-04-07T07:28:45.769Z,13.20
2017-04-07T07:29:49.425Z,13.10
2017-04-07T07:30:53.223Z,12.80
2017-04-07T07:31:58.107Z,12.90
2017-04-07T07:33:02.814Z,12.80
2017-04-07T07:34:06.617Z,13.00
2017-04-07T07:35:10.518Z,13.00
2017-04-07T07:36:14.100Z,12.80
2017-04-07T07:37:18.077Z,12.70
2017-04-07T07:38:21.925Z,12.60
2017-04-07T07:39:25.592Z,12.40
2017-04-07T07:40:29.326Z,12.30
2017-04-07T07:41:33.178Z,12.30
2017-04-07T07:42:36.669Z,12.50
2017-04-07T07:43:40.312Z,12.70
2017-04-07T07:44:44.005Z,12.60
2017-04-07T07:45:48.340Z,12.50
2017-04-07T07:46:52.369Z,12.70
2017-04-07T07:47:56.021Z,12.90
2017-04-07T07:49:00.037Z,13.10
2017-04-07T07:50:04.589Z,13.00
2017-04-07T07:51:08.534Z,12.90
2017-04-07T07:52:12.038Z,12.80
2017-04-07T07:53:15.801Z,12.70
2017-04-07T07:54:19.518Z,12.80
2017-04-07T07:55:23.601Z,12.70
2017-04-07T07:56:28.816Z,12.70
2017-04-07T07:57:32.708Z,12.60
2017-04-07T07:58:36.328Z,12.50
2017-04-07T07:59:39.882Z,12.50
2017-04-07T08:00:43.752Z,12.50
2017-04-07T08:01:47.657Z,12.70
2017-04-07T08:02:51.318Z,12.80
2017-04-07T08:03:54.808Z,13.00
2017-04-07T08:04:58.405Z,13.20
2017-04-07T08:06:02.034Z,13.30
2017-04-07T08:07:05.842Z,13.20
2017-04-07T08:08:12.119Z,13.20
2017-04-07T08:09:16.104Z,12.90
2017-04-07T08:10:19.813Z,12.50
2017-04-07T08:11:23.678Z,12.40
2017-04-07T08:12:27.696Z,12.60
2017-04-07T08:13:31.377Z,12.70
2017-04-07T08:14:34.959Z,12.50
2017-04-07T08:15:39.044Z,12.20
2017-04-07T08:16:42.924Z,12.40
2017-04-07T08:17:46.928Z,12.50
2017-04-07T08:18:50.966Z,12.60
2017-04-07T08:19:54.619Z,12.70
2017-04-07T08:20:58.424Z,12.70
2017-04-07T08:22:02.110Z,12.80
2017-04-07T08:23:06.044Z,12.80
2017-04-07T08:24:10.086Z,12.90
2017-04-07T08:25:14.004Z,12.90
2017-04-07T08:26:17.727Z,12.60
2017-04-07T08:27:22.562Z,12.50
2017-04-07T08:28:26.564Z,12.40
2017-04-07T08:29:30.040Z,12.30
2017-04-07T08:30:35.979Z,12.40
2017-04-07T08:31:39.736Z,12.30
2017-04-07T08:32:43.485Z,12.10
2017-04-07T08:33:47.318Z,12.00
2017-04-07T08:34:51.217Z,11.80
2017-04-07T08:35:55.028Z,11.70
2017-04-07T08:36:58.687Z,11.90
2017-04-07T08:38:02.498Z,12.00
2017-04-07T08:39:07.508Z,12.00
2017-04-07T08:40:11.358Z,11.90
2017-04-07T08:41:15.157Z,11.90
2017-04-07T08:42:18.656Z,12.10
2017-04-07T08:43:22.526Z,12.20
2017-04-07T08:44:26.317Z,12.40
2017-04-07T08:45:30.360Z,12.50
2017-04-07T08:46:33.957Z,12.20
2017-04-07T08:47:37.555Z,12.10
2017-04-07T08:48:41.366Z,11.80
2017-04-07T08:49:45.369Z,11.80
2017-04-07T08:50:49.346Z,11.90
2017-04-07T08:51:52.897Z,11.80
2017-04-07T08:52:56.570Z,11.70
2017-04-07T08:54:00.566Z,11.80
2017-04-07T08:55:04.385Z,11.80
2017-04-07T08:56:07.981Z,11.90
2017-04-07T08:57:13.483Z,12.00
2017-04-07T08:58:17.515Z,12.10
2017-04-07T08:59:21.280Z,12.20
2017-04-07T09:00:25.065Z,12.30
2017-04-07T09:01:28.803Z,12.20
2017-04-07T09:02:32.722Z,12.00
2017-04-07T09:03:36.237Z,11.90
2017-04-07T09:04:40.059Z,11.90
2017-04-07T09:05:44.161Z,12.10
2017-04-07T09:06:48.181Z,12.20
2017-04-07T09:07:52.047Z,12.40
2017-04-07T09:08:55.569Z,12.20
2017-04-07T09:09:58.925Z,12.00
2017-04-07T09:11:03.425Z,12.00
2017-04-07T09:12:07.004Z,12.00
2017-04-07T09:13:10.468Z,11.80
2017-04-07T09:14:14.223Z,11.80
2017-04-07T09:15:17.998Z,12.00
2017-04-07T09:16:22.278Z,12.10
2017-04-07T09:17:25.749Z,12.10
2017-04-07T09:18:29.844Z,12.20
2017-04-07T09:19:33.526Z,12.00
2017-04-07T09:20:37.162Z,11.90
2017-04-07T09:21:40.830Z,11.60
2017-04-07T09:22:44.446Z,11.40
2017-04-07T09:23:48.194Z,11.20
2017-04-07T09:24:51.927Z,11.20
2017-04-07T09:25:55.801Z,11.10
2017-04-07T09:26:59.882Z,11.20
2017-04-07T09:28:03.758Z,11.10
2017-04-07T09:29:07.604Z,11.00
2017-04-07T09:30:11.665Z,11.00
2017-04-07T09:31:16.084Z,11.10
2017-04-07T09:32:19.871Z,11.10
2017-04-07T09:33:23.599Z,11.10
2017-04-07T09:34:27.468Z,11.30
2017-04-07T09:35:31.101Z,11.50
2017-04-07T09:36:34.875Z,11.60
2017-04-07T09:37:38.441Z,11.70
2017-04-07T09:38:42.197Z,11.60
2017-04-07T09:39:46.119Z,11.40
2017-04-07T09:40:49.955Z,11.30
2017-04-07T09:41:53.553Z,11.20
2017-04-07T09:42:57.528Z,11.20
2017-04-07T09:44:01.302Z,11.30
2017-04-07T09:45:05.230Z,11.30
2017-04-07T09:46:09.138Z,11.20
2017-04-07T09:47:12.742Z,11.10
2017-04-07T09:48:16.602Z,11.00
2017-04-07T09:49:20.460Z,11.00
2017-04-07T09:50:24.414Z,11.00
2017-04-07T09:51:28.396Z,11.10
2017-04-07T09:52:32.963Z,11.10
2017-04-07T09:53:36.531Z,11.00
2017-04-07T09:54:40.203Z,11.10
2017-04-07T09:55:43.788Z,11.10
2017-04-07T09:56:47.667Z,11.10
2017-04-07T09:57:52.068Z,11.00
2017-04-07T09:58:55.964Z,10.90
2017-04-07T10:00:00.230Z,10.90
2017-04-07T10:01:04.078Z,10.90
2017-04-07T10:02:08.544Z,11.00
2017-04-07T10:03:12.211Z,11.00
2017-04-07T10:04:15.864Z,11.00
2017-04-07T10:05:19.485Z,11.10
2017-04-07T10:06:23.005Z,11.10
2017-04-07T10:07:26.529Z,11.10
2017-04-07T10:08:30.136Z,11.10
2017-04-07T10:09:34.058Z,11.20
2017-04-07T10:10:38.650Z,11.20
2017-04-07T10:11:42.412Z,11.30
2017-04-07T10:12:46.446Z,11.40
2017-04-07T10:13:49.962Z,11.50
2017-04-07T10:14:53.749Z,11.50
2017-04-07T10:15:57.352Z,11.40
2017-04-07T10:17:01.431Z,11.40
2017-04-07T10:18:05.542Z,11.50
2017-04-07T10:19:09.392Z,11.50
2017-04-07T10:20:13.257Z,11.60
2017-04-07T10:21:16.797Z,11.50
2017-04-07T10:22:20.679Z,11.40
2017-04-07T10:23:24.170Z,11.30
2017-04-07T10:24:28.102Z,11.30
2017-04-07T10:25:31.933Z,11.30
2017-04-07T10:26:35.841Z,11.20
2017-04-07T10:27:39.563Z,11.20
2017-04-07T10:28:43.395Z,11.30
2017-04-07T10:29:47.655Z,11.30
2017-04-07T10:30:51.387Z,11.30
2017-04-07T10:31:54.941Z,11.30
2017-04-07T10:32:58.901Z,11.30
2017-04-07T10:34:03.675Z,11.20
2017-04-07T10:35:07.581Z,11.20
2017-04-07T10:36:11.481Z,11.20
2017-04-07T10:37:15.585Z,11.10
2017-04-07T10:38:19.132Z,11.20
2017-04-07T10:39:23.471Z,11.10
2017-04-07T10:40:27.388Z,11.10
2017-04-07T10:41:30.756Z,11.00
2017-04-07T10:42:34.341Z,11.00
2017-04-07T10:43:37.695Z,11.00
2017-04-07T10:44:41.556Z,10.90
2017-04-07T10:45:45.010Z,10.90
2017-04-07T10:46:48.930Z,10.90
2017-04-07T10:47:52.773Z,11.00
2017-04-07T10:48:56.392Z,11.00
2017-04-07T10:50:00.329Z,11.00
2017-04-07T10:51:05.105Z,11.00
2017-04-07T10:52:08.998Z,11.00
2017-04-07T10:53:12.967Z,11.00
2017-04-07T10:54:17.732Z,11.10
2017-04-07T10:55:21.014Z,11.00
2017-04-07T10:56:24.756Z,10.90
2017-04-07T10:57:28.347Z,10.90
2017-04-07T10:58:33.768Z,10.90
2017-04-07T10:59:37.781Z,10.90
2017-04-07T11:00:41.382Z,11.00
2017-04-07T11:01:45.454Z,11.00
2017-04-07T11:02:50.017Z,11.10
2017-04-07T11:03:53.703Z,11.10
2017-04-07T11:04:57.421Z,11.00
2017-04-07T11:06:01.043Z,11.10
2017-04-07T11:07:04.907Z,11.00
2017-04-07T11:08:08.731Z,11.00
2017-04-07T11:09:12.611Z,11.00
2017-04-07T11:10:16.365Z,10.90
2017-04-07T11:11:19.758Z,10.90
2017-04-07T11:12:22.908Z,11.10
2017-04-07T11:13:26.592Z,11.30
2017-04-07T11:14:30.495Z,11.40
2017-04-07T11:15:34.316Z,11.40
2017-04-07T11:16:38.091Z,11.60
2017-04-07T11:17:41.909Z,11.70
2017-04-07T11:18:45.666Z,11.80
2017-04-07T11:19:49.126Z,11.90
2017-04-07T11:20:52.779Z,11.90
2017-04-07T11:21:57.206Z,11.70
2017-04-07T11:23:01.203Z,11.40
2017-04-07T11:24:04.751Z,11.50
2017-04-07T11:25:09.731Z,11.50
2017-04-07T11:26:14.243Z,11.40
2017-04-07T11:27:18.173Z,11.30
2017-04-07T11:28:22.196Z,11.20
2017-04-07T11:29:31.705Z,11.00
2017-04-07T11:30:35.486Z,10.90
2017-04-07T11:31:39.499Z,11.00
2017-04-07T11:32:43.350Z,10.80
2017-04-07T11:33:47.025Z,10.80
2017-04-07T11:34:51.698Z,10.90
2017-04-07T11:35:55.598Z,10.80
2017-04-07T11:36:59.264Z,10.80
2017-04-07T11:38:03.775Z,10.70
2017-04-07T11:39:07.883Z,10.80
2017-04-07T11:40:11.682Z,10.90
2017-04-07T11:41:15.394Z,10.90
2017-04-07T11:42:19.073Z,10.70
2017-04-07T11:43:22.641Z,10.50
2017-04-07T11:44:26.527Z,10.40
2017-04-07T11:45:30.371Z,10.30
2017-04-07T11:46:34.038Z,10.20
2017-04-07T11:47:37.853Z,10.20
2017-04-07T11:48:41.539Z,10.30
2017-04-07T11:49:44.880Z,10.30
2017-04-07T11:50:48.647Z,10.30
2017-04-07T11:51:52.489Z,10.40
2017-04-07T11:52:56.542Z,10.50
2017-04-07T11:54:00.564Z,10.50
2017-04-07T11:55:04.056Z,10.60
2017-04-07T11:56:07.837Z,10.60
2017-04-07T11:57:12.437Z,10.70
2017-04-07T11:58:16.363Z,10.70
2017-04-07T11:59:20.591Z,10.60
2017-04-07T12:00:24.245Z,10.70
2017-04-07T12:01:28.040Z,10.60
2017-04-07T12:02:31.945Z,10.70
2017-04-07T12:03:35.957Z,10.50
2017-04-07T12:04:39.753Z,10.50
2017-04-07T12:05:43.516Z,10.70
2017-04-07T12:06:47.274Z,10.80
2017-04-07T12:07:51.242Z,10.90
2017-04-07T12:08:55.158Z,10.80
2017-04-07T12:09:58.816Z,10.80
2017-04-07T12:11:02.668Z,10.80
2017-04-07T12:12:07.478Z,11.00
2017-04-07T12:13:11.582Z,10.80
2017-04-07T12:14:16.090Z,10.90
2017-04-07T12:15:19.984Z,10.80
2017-04-07T12:16:23.724Z,10.60
2017-04-07T12:17:27.617Z,10.60
2017-04-07T12:18:31.508Z,10.60
2017-04-07T12:19:35.175Z,10.60
2017-04-07T12:20:39.008Z,10.50
2017-04-07T12:21:42.979Z,10.60
2017-04-07T12:22:47.742Z,10.50
2017-04-07T12:23:51.501Z,10.40
2017-04-07T12:24:55.412Z,10.30
2017-04-07T12:25:59.365Z,10.30
2017-04-07T12:27:03.210Z,10.30
2017-04-07T12:28:06.922Z,10.20
2017-04-07T12:29:10.835Z,10.20
2017-04-07T12:30:14.697Z,10.20
2017-04-07T12:31:18.770Z,10.20
2017-04-07T12:32:22.643Z,10.20
2017-04-07T12:33:26.306Z,10.20
2017-04-07T12:34:30.250Z,10.20
2017-04-07T12:35:34.041Z,10.20
2017-04-07T12:36:37.715Z,10.40
2017-04-07T12:37:41.246Z,10.50
2017-04-07T12:38:45.445Z,10.50
2017-04-07T12:39:50.112Z,10.50
2017-04-07T12:40:54.093Z,10.50
2017-04-07T12:41:57.568Z,10.60
2017-04-07T12:43:01.435Z,10.50
2017-04-07T12:44:05.357Z,10.50
2017-04-07T12:45:08.960Z,10.60
2017-04-07T12:46:12.707Z,10.70
2017-04-07T12:47:16.505Z,10.70
2017-04-07T12:48:20.393Z,10.70
2017-04-07T12:49:24.346Z,10.80
2017-04-07T12:50:28.312Z,10.60
2017-04-07T12:51:32.517Z,10.50
2017-04-07T12:52:35.863Z,10.40
2017-04-07T12:53:39.020Z,10.40
2017-04-07T12:54:42.786Z,10.50
2017-04-07T12:55:46.590Z,10.40
2017-04-07T12:56:50.728Z,10.40
2017-04-07T12:57:54.171Z,10.50
2017-04-07T12:58:58.071Z,10.40
2017-04-07T13:00:02.932Z,10.30
2017-04-07T13:01:07.029Z,10.30
2017-04-07T13:02:11.012Z,10.30
2017-04-07T13:03:14.869Z,10.40
2017-04-07T13:04:18.805Z,10.50
2017-04-07T13:05:22.815Z,10.60
2017-04-07T13:06:27.263Z,10.60
2017-04-07T13:07:30.933Z,10.60
2017-04-07T13:08:34.586Z,10.50
2017-04-07T13:09:38.924Z,10.60
2017-04-07T13:10:42.636Z,10.60
2017-04-07T13:11:46.331Z,10.70
2017-04-07T13:12:50.193Z,10.70
2017-04-07T13:13:54.199Z,10.80
2017-04-07T13:14:58.013Z,10.60
2017-04-07T13:16:01.794Z,11.00
2017-04-07T13:17:05.777Z,11.10
2017-04-07T13:18:09.404Z,11.30
2017-04-07T13:19:13.351Z,11.40
2017-04-07T13:20:17.087Z,11.40
2017-04-07T13:21:20.585Z,11.50
2017-04-07T13:22:24.456Z,11.60
2017-04-07T13:23:29.001Z,11.60
2017-04-07T13:24:32.996Z,11.50
2017-04-07T13:25:36.835Z,11.50
2017-04-07T13:26:40.780Z,11.40
2017-04-07T13:27:46.153Z,11.40
2017-04-07T13:28:50.502Z,11.50
2017-04-07T13:29:54.082Z,11.80
2017-04-07T13:30:58.017Z,11.80
2017-04-07T13:32:02.034Z,11.80
2017-04-07T13:33:05.916Z,11.80
2017-04-07T13:34:09.517Z,11.90
2017-04-07T13:36:16.546Z,11.70
2017-04-07T13:37:20.351Z,11.70
2017-04-07T13:38:23.722Z,11.70
2017-04-07T13:39:27.892Z,11.70
2017-04-07T13:40:31.852Z,11.60
2017-04-07T13:41:35.536Z,11.70
2017-04-07T13:42:39.049Z,11.60
2017-04-07T13:43:42.826Z,11.50
2017-04-07T13:44:46.533Z,11.60
2017-04-07T13:45:50.469Z,11.60
2017-04-07T13:46:54.262Z,12.00
2017-04-07T13:47:58.031Z,11.90